createdAt,value
2023-04-08T00:00:49.646Z,18.13
2023-04-08T00:03:16.414Z,18.85
2023-04-08T00:05:43.021Z,17.83
2023-04-08T00:08:09.534Z,17.85
2023-04-08T00:10:36.643Z,17.98
2023-04-08T00:13:03.225Z,18.23
2023-04-08T00:15:29.822Z,17.70
2023-04-08T00:17:56.594Z,17.20
2023-04-08T00:20:23.937Z,19.13
2023-04-08T00:22:50.449Z,18.08
2023-04-08T00:25:17.034Z,16.27
2023-04-08T00:27:43.536Z,16.48
2023-04-08T00:30:10.558Z,15.80
2023-04-08T00:32:37.313Z,16.85
2023-04-08T00:35:04.482Z,17.27
2023-04-08T00:37:31.623Z,18.33
2023-04-08T00:39:58.144Z,16.15
2023-04-08T00:42:24.678Z,14.40
2023-04-08T00:44:51.194Z,16.13
2023-04-08T00:47:17.746Z,18.27
2023-04-08T00:49:44.515Z,16.05
2023-04-08T00:52:11.173Z,15.52
2023-04-08T00:54:38.378Z,14.73
2023-04-08T00:57:05.897Z,17.58
2023-04-08T00:59:32.831Z,14.70
2023-04-08T01:02:02.388Z,16.38
2023-04-08T01:04:31.932Z,14.93
2023-04-08T01:06:58.459Z,13.68
2023-04-08T01:09:27.858Z,13.52
2023-04-08T01:11:56.975Z,15.43
2023-04-08T01:14:24.894Z,14.57
2023-04-08T01:16:51.414Z,15.98
2023-04-08T01:19:22.936Z,15.88
2023-04-08T01:21:50.409Z,14.45
2023-04-08T01:24:31.152Z,15.65
2023-04-08T01:26:58.285Z,13.90
2023-04-08T01:29:26.253Z,16.67
2023-04-08T01:31:53.817Z,13.85
2023-04-08T01:34:21.234Z,14.18
2023-04-08T01:36:48.075Z,14.38
2023-04-08T01:39:16.713Z,13.95
2023-04-08T01:41:43.678Z,15.38
2023-04-08T01:44:11.413Z,14.60
2023-04-08T01:46:39.457Z,16.52
2023-04-08T01:49:06.539Z,15.02
2023-04-08T01:51:33.590Z,14.70
2023-04-08T01:54:00.350Z,14.10
2023-04-08T01:56:28.345Z,14.07
2023-04-08T01:58:56.824Z,15.25
2023-04-08T02:01:25.461Z,16.15
2023-04-08T02:03:53.763Z,15.20
2023-04-08T02:06:20.312Z,15.07
2023-04-08T02:08:46.884Z,14.98
2023-04-08T02:11:13.393Z,14.27
2023-04-08T02:13:39.929Z,14.25
2023-04-08T02:16:26.745Z,14.20
2023-04-08T02:19:00.892Z,13.40
2023-04-08T02:21:31.365Z,14.52
2023-04-08T02:24:00.805Z,14.23
2023-04-08T02:26:28.165Z,13.75
2023-04-08T02:28:55.449Z,14.65
2023-04-08T02:31:22.799Z,15.23
2023-04-08T02:33:51.090Z,18.20
2023-04-08T02:36:17.627Z,12.98
2023-04-08T02:38:48.208Z,15.05
2023-04-08T02:41:16.232Z,16.90
2023-04-08T02:43:42.946Z,15.90
2023-04-08T02:46:11.278Z,17.80
2023-04-08T02:48:37.853Z,18.45
2023-04-08T02:51:04.345Z,19.80
2023-04-08T02:53:30.954Z,16.92
2023-04-08T02:55:57.478Z,18.05
2023-04-08T02:58:24.004Z,17.23
2023-04-08T03:00:50.544Z,15.63
2023-04-08T03:03:17.054Z,15.63
2023-04-08T03:05:43.624Z,13.65
2023-04-08T03:08:10.267Z,14.52
2023-04-08T03:10:36.833Z,13.90
2023-04-08T03:13:03.355Z,14.32
2023-04-08T03:15:29.847Z,14.40
2023-04-08T03:17:56.460Z,14.90
2023-04-08T03:20:23.081Z,15.77
2023-04-08T03:22:49.574Z,17.38
2023-04-08T03:25:16.211Z,17.90
2023-04-08T03:27:42.748Z,18.10
2023-04-08T03:30:10.115Z,18.58
2023-04-08T03:32:36.904Z,16.75
2023-04-08T03:35:03.940Z,18.73
2023-04-08T03:37:30.494Z,15.43
2023-04-08T03:39:57.066Z,14.68
2023-04-08T03:42:23.790Z,14.05
2023-04-08T03:44:50.347Z,12.77
2023-04-08T03:47:16.850Z,11.90
2023-04-08T03:49:43.332Z,12.73
2023-04-08T03:52:09.849Z,13.02
2023-04-08T03:54:36.321Z,10.60
2023-04-08T03:57:02.904Z,10.63
2023-04-08T03:59:29.587Z,11.50
2023-04-08T04:01:56.633Z,10.50
2023-04-08T04:04:24.003Z,9.20
2023-04-08T04:06:50.678Z,10.63
2023-04-08T04:09:17.347Z,9.32
2023-04-08T04:11:43.856Z,9.50
2023-04-08T04:14:10.605Z,9.00
2023-04-08T04:16:37.193Z,8.80
2023-04-08T04:19:03.820Z,9.60
2023-04-08T04:21:30.340Z,8.82
2023-04-08T04:23:56.863Z,10.38
2023-04-08T04:26:23.417Z,9.30
2023-04-08T04:28:50.193Z,8.48
2023-04-08T04:31:21.474Z,8.32
2023-04-08T04:33:48.709Z,8.75
2023-04-08T04:36:15.821Z,8.63
2023-04-08T04:38:45.441Z,8.00
2023-04-08T04:41:12.328Z,7.25
2023-04-08T04:43:38.875Z,8.07
2023-04-08T04:46:08.898Z,8.32
2023-04-08T04:48:35.747Z,8.70
2023-04-08T04:51:03.522Z,8.98
2023-04-08T04:53:30.759Z,8.60
2023-04-08T04:55:57.298Z,7.30
2023-04-08T04:58:23.813Z,7.30
2023-04-08T05:00:50.472Z,8.00
2023-04-08T05:03:17.068Z,8.30
2023-04-08T05:05:43.656Z,7.97
2023-04-08T05:08:10.401Z,7.80
2023-04-08T05:10:36.899Z,9.43
2023-04-08T05:13:03.375Z,7.47
2023-04-08T05:15:29.901Z,7.80
2023-04-08T05:17:56.446Z,7.13
2023-04-08T05:20:23.020Z,8.30
2023-04-08T05:22:49.850Z,9.77
2023-04-08T05:25:16.505Z,9.02
2023-04-08T05:27:42.992Z,8.48
2023-04-08T05:30:09.999Z,8.13
2023-04-08T05:32:36.591Z,8.68
2023-04-08T05:35:03.896Z,9.25
2023-04-08T05:37:30.499Z,7.03
2023-04-08T05:39:56.973Z,8.48
2023-04-08T05:42:23.766Z,8.70
2023-04-08T05:44:50.300Z,8.90
2023-04-08T05:47:16.832Z,7.45
2023-04-08T05:49:43.387Z,8.77
2023-04-08T05:52:09.878Z,8.57
2023-04-08T05:54:36.570Z,9.45
2023-04-08T05:57:03.235Z,8.98
2023-04-08T05:59:29.723Z,8.70
2023-04-08T06:01:57.126Z,8.57
2023-04-08T06:04:23.921Z,8.27
2023-04-08T06:06:50.584Z,7.90
2023-04-08T06:09:17.069Z,11.13
2023-04-08T06:11:43.589Z,8.60
2023-04-08T06:14:10.221Z,8.65
2023-04-08T06:16:36.826Z,8.93
2023-04-08T06:19:03.328Z,9.88
2023-04-08T06:21:29.855Z,8.90
2023-04-08T06:23:56.372Z,8.52
2023-04-08T06:26:22.853Z,8.70
2023-04-08T06:28:49.514Z,8.73
2023-04-08T06:31:16.440Z,8.65
2023-04-08T06:33:42.998Z,9.77
2023-04-08T06:36:09.748Z,9.20
2023-04-08T06:38:36.663Z,9.95
2023-04-08T06:41:06.713Z,8.90
2023-04-08T06:43:33.747Z,8.70
2023-04-08T06:46:00.583Z,10.05
2023-04-08T06:48:29.305Z,8.68
2023-04-08T06:50:59.124Z,8.32
2023-04-08T06:53:26.269Z,9.02
2023-04-08T06:55:52.913Z,7.85
2023-04-08T06:58:19.386Z,9.20
2023-04-08T07:00:45.963Z,8.38
2023-04-08T07:03:12.999Z,8.25
2023-04-08T07:05:39.743Z,8.40
2023-04-08T07:08:06.652Z,7.35
2023-04-08T07:10:33.270Z,6.78
2023-04-08T07:13:00.044Z,7.75
2023-04-08T07:15:26.565Z,7.15
2023-04-08T07:17:53.177Z,7.90
2023-04-08T07:20:19.676Z,7.50
2023-04-08T07:22:46.192Z,7.25
2023-04-08T07:25:12.742Z,7.15
2023-04-08T07:27:39.248Z,6.78
2023-04-08T07:30:06.137Z,6.72
2023-04-08T07:32:33.180Z,6.55
2023-04-08T07:35:00.508Z,5.18
2023-04-08T07:37:27.469Z,5.82
2023-04-08T07:39:53.998Z,9.00
2023-04-08T07:42:20.557Z,6.45
2023-04-08T07:44:47.142Z,7.22
2023-04-08T07:47:14.109Z,6.32
2023-04-08T07:49:40.632Z,5.25
2023-04-08T07:52:07.132Z,6.07
2023-04-08T07:54:36.647Z,6.28
2023-04-08T07:57:03.170Z,5.38
2023-04-08T07:59:29.942Z,5.90
2023-04-08T08:01:56.597Z,5.65
2023-04-08T08:04:25.957Z,6.95
2023-04-08T08:06:52.748Z,6.28
2023-04-08T08:09:19.230Z,5.43
2023-04-08T08:11:45.828Z,5.38
2023-04-08T08:14:13.970Z,5.93
2023-04-08T08:16:40.499Z,5.65
2023-04-08T08:19:08.809Z,6.60
2023-04-08T08:21:39.468Z,5.35
2023-04-08T08:24:06.524Z,5.80
2023-04-08T08:26:37.198Z,4.63
2023-04-08T08:29:04.043Z,5.85
2023-04-08T08:31:30.716Z,4.95
2023-04-08T08:33:57.349Z,6.25
2023-04-08T08:36:23.993Z,5.38
2023-04-08T08:38:52.012Z,5.68
2023-04-08T08:41:18.520Z,6.25
2023-04-08T08:43:45.290Z,5.00
2023-04-08T08:46:12.302Z,6.18
2023-04-08T08:48:40.791Z,4.70
2023-04-08T08:51:10.805Z,6.05
2023-04-08T08:53:37.761Z,5.78
2023-04-08T08:56:17.949Z,5.07
2023-04-08T08:58:45.208Z,5.70
2023-04-08T09:01:31.302Z,6.10
2023-04-08T09:04:08.249Z,5.57
2023-04-08T09:06:35.478Z,5.18
2023-04-08T09:09:02.895Z,5.57
2023-04-08T09:11:29.462Z,5.60
2023-04-08T09:13:57.251Z,5.38
2023-04-08T09:16:24.173Z,7.20
2023-04-08T09:18:50.939Z,5.75
2023-04-08T09:21:17.955Z,5.05
2023-04-08T09:23:48.709Z,5.22
2023-04-08T09:26:16.460Z,5.82
2023-04-08T09:28:43.768Z,5.38
2023-04-08T09:31:21.245Z,5.38
2023-04-08T09:33:48.992Z,5.78
2023-04-08T09:36:16.223Z,6.15
2023-04-08T09:38:43.615Z,5.97
2023-04-08T09:41:13.209Z,5.53
2023-04-08T09:43:50.409Z,4.68
2023-04-08T09:46:18.598Z,6.50
2023-04-08T09:48:57.585Z,4.65
2023-04-08T09:51:24.932Z,4.80
2023-04-08T09:54:01.451Z,6.75
2023-04-08T09:56:31.500Z,5.95
2023-04-08T09:59:05.264Z,5.00
2023-04-08T10:01:42.582Z,6.43
2023-04-08T10:04:12.306Z,5.10
2023-04-08T10:06:40.070Z,6.20
2023-04-08T10:09:07.557Z,5.80
2023-04-08T10:11:34.497Z,6.18
2023-04-08T10:14:01.484Z,4.70
2023-04-08T10:16:28.293Z,5.13
2023-04-08T10:18:58.291Z,5.35
2023-04-08T10:21:35.008Z,6.25
2023-04-08T10:24:06.300Z,5.25
2023-04-08T10:26:50.843Z,5.78
2023-04-08T10:29:17.409Z,5.72
2023-04-08T10:31:44.581Z,5.07
2023-04-08T10:34:25.714Z,5.13
2023-04-08T10:36:53.295Z,5.88
2023-04-08T10:39:19.761Z,4.85
2023-04-08T10:41:47.111Z,5.18
2023-04-08T10:44:17.898Z,5.15
2023-04-08T10:46:44.967Z,4.57
2023-04-08T10:49:11.567Z,7.05
2023-04-08T10:51:38.624Z,7.07
2023-04-08T10:54:06.105Z,5.30
2023-04-08T10:56:33.533Z,5.78
2023-04-08T10:59:00.126Z,4.55
2023-04-08T11:01:27.328Z,5.30
2023-04-08T11:03:54.054Z,5.18
2023-04-08T11:06:20.843Z,5.93
2023-04-08T11:08:47.473Z,6.43
2023-04-08T11:11:14.717Z,5.53
2023-04-08T11:13:51.154Z,5.32
2023-04-08T11:16:20.931Z,4.30
2023-04-08T11:18:48.209Z,4.78
2023-04-08T11:21:15.246Z,5.32
2023-04-08T11:23:42.682Z,4.85
2023-04-08T11:26:09.306Z,4.82
2023-04-08T11:28:35.868Z,7.15
2023-04-08T11:31:04.449Z,5.35
2023-04-08T11:33:31.944Z,5.43
2023-04-08T11:36:01.472Z,5.20
2023-04-08T11:38:28.160Z,4.65
2023-04-08T11:40:55.482Z,5.65
2023-04-08T11:43:22.264Z,4.28
2023-04-08T11:45:48.824Z,4.80
2023-04-08T11:48:16.519Z,6.13
2023-04-08T11:50:43.532Z,3.88
2023-04-08T11:53:17.829Z,5.03
2023-04-08T11:55:44.344Z,5.55
2023-04-08T11:58:11.196Z,4.72
2023-04-08T12:00:38.628Z,5.45
2023-04-08T12:03:06.052Z,5.07
2023-04-08T12:05:32.612Z,5.10
2023-04-08T12:07:59.123Z,6.40
2023-04-08T12:10:25.685Z,4.88
2023-04-08T12:12:52.220Z,5.82
2023-04-08T12:15:18.768Z,4.72
2023-04-08T12:17:45.440Z,5.60
2023-04-08T12:20:12.464Z,4.75
2023-04-08T12:22:39.363Z,4.85
2023-04-08T12:25:06.332Z,3.83
2023-04-08T12:27:36.494Z,4.95
2023-04-08T12:30:03.460Z,5.40
2023-04-08T12:32:30.044Z,4.93
2023-04-08T12:34:56.563Z,4.40
2023-04-08T12:37:23.071Z,4.93
2023-04-08T12:39:50.008Z,5.65
2023-04-08T12:42:16.684Z,5.03
2023-04-08T12:44:43.204Z,5.25
2023-04-08T12:47:09.808Z,4.45
2023-04-08T12:49:48.636Z,4.25
2023-04-08T12:52:15.708Z,5.75
2023-04-08T12:54:42.174Z,5.32
2023-04-08T12:57:08.914Z,6.13
2023-04-08T12:59:35.439Z,5.55
2023-04-08T13:02:01.978Z,5.65
2023-04-08T13:04:28.597Z,4.50
2023-04-08T13:06:55.666Z,5.00
2023-04-08T13:09:22.522Z,4.57
2023-04-08T13:11:49.077Z,4.35
2023-04-08T13:14:15.684Z,4.50
2023-04-08T13:16:42.514Z,4.93
2023-04-08T13:19:09.073Z,5.18
2023-04-08T13:21:35.611Z,4.70
2023-04-08T13:24:02.310Z,5.05
2023-04-08T13:26:28.952Z,5.65
2023-04-08T13:28:57.746Z,5.82
2023-04-08T13:31:25.540Z,4.95
2023-04-08T13:33:53.887Z,6.80
2023-04-08T13:36:21.866Z,4.85
2023-04-08T13:38:48.486Z,4.25
2023-04-08T13:41:15.119Z,5.43
2023-04-08T13:43:41.975Z,5.55
2023-04-08T13:46:08.597Z,5.28
2023-04-08T13:48:35.213Z,4.65
2023-04-08T13:51:01.727Z,5.05
2023-04-08T13:53:28.270Z,5.95
2023-04-08T13:55:56.066Z,4.72
2023-04-08T13:58:24.272Z,4.82
2023-04-08T14:00:51.925Z,5.47
2023-04-08T14:03:18.727Z,4.88
2023-04-08T14:05:45.549Z,5.35
2023-04-08T14:08:13.711Z,6.60
2023-04-08T14:10:42.087Z,5.82
2023-04-08T14:13:09.190Z,5.72
2023-04-08T14:15:35.769Z,5.90
2023-04-08T14:18:02.373Z,5.70
2023-04-08T14:20:29.016Z,4.32
2023-04-08T14:22:56.798Z,5.30
2023-04-08T14:25:23.533Z,4.57
2023-04-08T14:27:57.907Z,4.45
2023-04-08T14:30:25.344Z,4.25
2023-04-08T14:32:51.979Z,4.28
2023-04-08T14:35:18.574Z,5.25
2023-04-08T14:37:45.054Z,5.32
2023-04-08T14:40:11.796Z,4.35
2023-04-08T14:42:38.437Z,4.50
2023-04-08T14:45:05.139Z,4.95
2023-04-08T14:47:31.686Z,4.65
2023-04-08T14:49:58.220Z,4.50
2023-04-08T14:52:24.991Z,5.00
2023-04-08T14:54:52.541Z,4.60
2023-04-08T14:57:19.273Z,5.18
2023-04-08T14:59:45.948Z,5.80
2023-04-08T15:02:12.693Z,5.35
2023-04-08T15:04:39.325Z,5.32
2023-04-08T15:07:06.341Z,5.32
2023-04-08T15:09:32.871Z,4.90
2023-04-08T15:12:00.056Z,4.55
2023-04-08T15:14:26.849Z,5.32
2023-04-08T15:16:53.373Z,4.88
2023-04-08T15:19:20.342Z,4.57
2023-04-08T15:21:47.441Z,5.10
2023-04-08T15:24:14.211Z,4.72
2023-04-08T15:26:41.167Z,5.65
2023-04-08T15:29:07.892Z,4.95
2023-04-08T15:31:35.197Z,5.35
2023-04-08T15:34:02.864Z,5.93
2023-04-08T15:36:29.977Z,3.45
2023-04-08T15:38:56.923Z,6.05
2023-04-08T15:41:23.604Z,3.97
2023-04-08T15:43:50.318Z,4.28
2023-04-08T15:46:20.547Z,4.25
2023-04-08T15:48:47.609Z,4.85
2023-04-08T15:51:14.143Z,3.70
2023-04-08T15:53:40.920Z,5.05
2023-04-08T15:56:12.109Z,5.82
2023-04-08T15:58:38.588Z,4.38
2023-04-08T16:01:05.069Z,5.00
2023-04-08T16:03:31.846Z,6.15
2023-04-08T16:05:58.642Z,5.03
2023-04-08T16:08:25.620Z,5.00
2023-04-08T16:10:52.182Z,5.20
2023-04-08T16:13:18.717Z,6.07
2023-04-08T16:15:45.295Z,4.38
2023-04-08T16:18:11.952Z,5.25
2023-04-08T16:20:39.041Z,4.25
2023-04-08T16:23:05.524Z,5.60
2023-04-08T16:25:32.036Z,5.55
2023-04-08T16:27:58.518Z,5.28
2023-04-08T16:30:25.037Z,5.72
2023-04-08T16:32:51.567Z,6.05
2023-04-08T16:35:20.519Z,5.10
2023-04-08T16:37:47.015Z,5.57
2023-04-08T16:40:13.629Z,4.72
2023-04-08T16:42:40.120Z,5.97
2023-04-08T16:45:07.034Z,5.13
2023-04-08T16:47:33.727Z,4.90
2023-04-08T16:50:00.497Z,4.72
2023-04-08T16:52:27.033Z,7.07
2023-04-08T16:54:53.643Z,20.95
2023-04-08T16:57:20.170Z,13.95
2023-04-08T16:59:47.218Z,17.60
2023-04-08T17:02:13.785Z,10.93
2023-04-08T17:04:41.807Z,9.98
2023-04-08T17:07:08.653Z,10.73
2023-04-08T17:09:36.019Z,9.77
2023-04-08T17:12:02.609Z,7.82
2023-04-08T17:14:29.217Z,7.30
2023-04-08T17:16:56.093Z,6.35
2023-04-08T17:19:22.687Z,8.45
2023-04-08T17:21:49.245Z,6.97
2023-04-08T17:24:15.875Z,7.50
2023-04-08T17:26:45.280Z,8.00
2023-04-08T17:29:12.304Z,7.55
2023-04-08T17:31:40.302Z,7.30
2023-04-08T17:34:07.934Z,7.85
2023-04-08T17:36:34.456Z,7.03
2023-04-08T17:39:01.017Z,7.38
2023-04-08T17:41:38.934Z,7.25
2023-04-08T17:44:06.830Z,6.22
2023-04-08T17:46:33.551Z,6.90
2023-04-08T17:49:00.120Z,7.15
2023-04-08T17:51:26.651Z,6.45
2023-04-08T17:53:53.293Z,7.25
2023-04-08T17:56:19.849Z,8.50
2023-04-08T17:58:48.260Z,9.00
2023-04-08T18:01:15.433Z,8.63
2023-04-08T18:03:42.386Z,7.50
2023-04-08T18:06:11.601Z,9.10
2023-04-08T18:08:38.121Z,9.88
2023-04-08T18:11:07.368Z,8.95
2023-04-08T18:13:33.891Z,9.98
2023-04-08T18:16:00.404Z,10.55
2023-04-08T18:18:26.946Z,10.05
2023-04-08T18:20:53.439Z,10.38
2023-04-08T18:23:19.960Z,20.83
2023-04-08T18:25:46.820Z,24.48
2023-04-08T18:28:13.304Z,19.52
2023-04-08T18:30:39.887Z,29.10
2023-04-08T18:33:06.832Z,28.05
2023-04-08T18:35:33.340Z,14.38
2023-04-08T18:37:59.896Z,10.18
2023-04-08T18:40:26.480Z,9.70
2023-04-08T18:42:52.952Z,9.48
2023-04-08T18:45:19.477Z,8.57
2023-04-08T18:47:46.016Z,9.05
2023-04-08T18:50:12.570Z,8.68
2023-04-08T18:52:39.163Z,8.15
2023-04-08T18:55:05.912Z,7.65
2023-04-08T18:57:32.453Z,8.65
2023-04-08T18:59:58.925Z,7.18
2023-04-08T19:02:25.637Z,8.40
2023-04-08T19:04:52.218Z,7.30
2023-04-08T19:07:18.708Z,7.72
2023-04-08T19:09:45.569Z,6.65
2023-04-08T19:12:13.345Z,6.00
2023-04-08T19:14:41.971Z,5.70
2023-04-08T19:17:09.831Z,6.85
2023-04-08T19:19:36.517Z,7.57
2023-04-08T19:22:05.745Z,7.05
2023-04-08T19:24:33.042Z,7.35
2023-04-08T19:27:00.029Z,8.38
2023-04-08T19:29:29.723Z,7.30
2023-04-08T19:31:57.453Z,6.32
2023-04-08T19:34:24.012Z,6.07
2023-04-08T19:36:50.683Z,6.80
2023-04-08T19:39:17.164Z,6.60
2023-04-08T19:41:43.677Z,5.70
2023-04-08T19:44:10.400Z,7.10
2023-04-08T19:46:37.402Z,7.65
2023-04-08T19:49:04.212Z,6.25
2023-04-08T19:51:32.528Z,6.00
2023-04-08T19:53:59.070Z,6.05
2023-04-08T19:56:25.887Z,6.88
2023-04-08T19:58:52.627Z,5.82
2023-04-08T20:01:19.440Z,5.47
2023-04-08T20:03:50.668Z,5.75
2023-04-08T20:06:20.136Z,6.03
2023-04-08T20:08:46.794Z,4.88
2023-04-08T20:11:13.454Z,7.20
2023-04-08T20:13:40.214Z,5.70
2023-04-08T20:16:07.539Z,6.95
2023-04-08T20:18:34.469Z,6.32
2023-04-08T20:21:01.158Z,8.25
2023-04-08T20:23:28.549Z,7.32
2023-04-08T20:25:55.142Z,7.57
2023-04-08T20:28:21.644Z,7.38
2023-04-08T20:30:48.198Z,6.30
2023-04-08T20:33:14.768Z,7.72
2023-04-08T20:35:41.482Z,7.85
2023-04-08T20:38:08.043Z,5.93
2023-04-08T20:40:34.594Z,6.05
2023-04-08T20:43:01.224Z,5.80
2023-04-08T20:45:28.370Z,6.80
2023-04-08T20:47:55.685Z,6.80
2023-04-08T20:50:22.372Z,6.30
2023-04-08T20:52:48.935Z,7.95
2023-04-08T20:55:15.606Z,6.47
2023-04-08T20:57:42.157Z,7.03
2023-04-08T21:00:09.682Z,6.50
2023-04-08T21:02:36.567Z,7.60
2023-04-08T21:05:03.303Z,7.25
2023-04-08T21:07:30.432Z,6.88
2023-04-08T21:09:57.000Z,6.32
2023-04-08T21:12:23.629Z,7.43
2023-04-08T21:14:50.945Z,6.28
2023-04-08T21:17:17.567Z,6.13
2023-04-08T21:19:44.186Z,7.88
2023-04-08T21:22:10.804Z,5.40
2023-04-08T21:24:38.093Z,5.95
2023-04-08T21:27:04.660Z,5.22
2023-04-08T21:29:31.169Z,5.95
2023-04-08T21:31:57.717Z,7.20
2023-04-08T21:34:24.298Z,8.32
2023-04-08T21:36:50.954Z,11.38
2023-04-08T21:39:17.584Z,10.88
2023-04-08T21:41:44.102Z,6.97
2023-04-08T21:44:10.659Z,7.32
2023-04-08T21:46:37.200Z,5.30
2023-04-08T21:49:03.722Z,9.32
2023-04-08T21:51:30.253Z,5.90
2023-04-08T21:53:56.787Z,6.30
2023-04-08T21:56:24.581Z,5.65
2023-04-08T21:58:51.388Z,5.45
2023-04-08T22:01:18.097Z,6.25
2023-04-08T22:03:44.942Z,5.40
2023-04-08T22:06:19.210Z,9.00
2023-04-08T22:08:52.394Z,7.03
2023-04-08T22:11:19.182Z,6.35
2023-04-08T22:13:45.732Z,7.38
2023-04-08T22:16:12.316Z,6.50
2023-04-08T22:18:38.815Z,5.63
2023-04-08T22:21:06.069Z,4.57
2023-04-08T22:23:32.605Z,5.32
2023-04-08T22:25:59.124Z,5.93
2023-04-08T22:28:25.627Z,5.38
2023-04-08T22:30:55.016Z,5.82
2023-04-08T22:33:21.940Z,5.18
2023-04-08T22:35:48.469Z,4.72
2023-04-08T22:38:14.976Z,5.07
2023-04-08T22:40:41.530Z,5.85
2023-04-08T22:43:08.058Z,4.68
2023-04-08T22:45:36.509Z,5.22
2023-04-08T22:48:03.114Z,5.60
2023-04-08T22:50:29.751Z,4.88
2023-04-08T22:52:56.293Z,5.25
2023-04-08T22:55:22.812Z,5.68
2023-04-08T22:57:49.494Z,5.05
2023-04-08T23:00:16.125Z,5.00
2023-04-08T23:02:42.721Z,4.97
2023-04-08T23:05:09.508Z,4.43
2023-04-08T23:07:36.168Z,4.60
2023-04-08T23:10:02.719Z,4.53
2023-04-08T23:12:29.212Z,5.22
2023-04-08T23:14:55.740Z,6.05
2023-04-08T23:17:22.273Z,4.10
2023-04-08T23:19:48.760Z,4.45
2023-04-08T23:22:15.508Z,5.18
2023-04-08T23:24:42.044Z,4.18
2023-04-08T23:27:08.948Z,5.03
2023-04-08T23:29:35.460Z,5.63
2023-04-08T23:32:02.046Z,5.35
2023-04-08T23:34:28.591Z,4.35
2023-04-08T23:36:55.080Z,4.30
2023-04-08T23:39:21.599Z,3.60
2023-04-08T23:41:48.105Z,4.07
2023-04-08T23:44:14.609Z,4.90
2023-04-08T23:46:41.151Z,4.25
2023-04-08T23:49:07.861Z,6.07
2023-04-08T23:51:34.442Z,5.97
2023-04-08T23:54:00.940Z,3.95
2023-04-08T23:56:27.555Z,4.22
2023-04-08T23:58:54.314Z,4.70
